sensor_id;sensor_type;location;lat;lon;timestamp;P1;durP1;ratioP1;P2;durP2;ratioP2
11663;SDS011;72375;59.302;18.204;2023-09-19T00:01:03;5.90;;;3.50;;
11663;SDS011;72375;59.302;18.204;2023-09-19T00:03:52;4.60;;;3.60;;
11663;SDS011;72375;59.302;18.204;2023-09-19T00:06:38;5.80;;;4.00;;
11663;SDS011;72375;59.302;18.204;2023-09-19T00:09:24;8.65;;;4.25;;
11663;SDS011;72375;59.302;18.204;2023-09-19T00:12:11;5.20;;;3.60;;
11663;SDS011;72375;59.302;18.204;2023-09-19T00:14:57;6.18;;;4.32;;
11663;SDS011;72375;59.302;18.204;2023-09-19T00:17:44;7.97;;;4.13;;
11663;SDS011;72375;59.302;18.204;2023-09-19T00:20:32;8.57;;;4.72;;
11663;SDS011;72375;59.302;18.204;2023-09-19T00:23:20;10.18;;;4.95;;
11663;SDS011;72375;59.302;18.204;2023-09-19T00:26:06;7.13;;;4.90;;
11663;SDS011;72375;59.302;18.204;2023-09-19T00:28:52;8.00;;;4.85;;
11663;SDS011;72375;59.302;18.204;2023-09-19T00:31:37;9.75;;;5.22;;
11663;SDS011;72375;59.302;18.204;2023-09-19T00:34:23;7.53;;;4.90;;
11663;SDS011;72375;59.302;18.204;2023-09-19T00:37:10;8.63;;;5.40;;
11663;SDS011;72375;59.302;18.204;2023-09-19T00:39:56;7.35;;;4.70;;
11663;SDS011;72375;59.302;18.204;2023-09-19T00:42:42;8.80;;;4.97;;
11663;SDS011;72375;59.302;18.204;2023-09-19T00:45:27;9.48;;;5.50;;
11663;SDS011;72375;59.302;18.204;2023-09-19T00:48:14;7.72;;;5.18;;
11663;SDS011;72375;59.302;18.204;2023-09-19T00:51:02;8.45;;;4.93;;
11663;SDS011;72375;59.302;18.204;2023-09-19T00:53:51;10.02;;;5.82;;
11663;SDS011;72375;59.302;18.204;2023-09-19T00:56:37;9.40;;;5.93;;
11663;SDS011;72375;59.302;18.204;2023-09-19T00:59:24;11.20;;;5.10;;
11663;SDS011;72375;59.302;18.204;2023-09-19T01:02:09;7.95;;;5.30;;
11663;SDS011;72375;59.302;18.204;2023-09-19T01:04:58;7.20;;;5.57;;
11663;SDS011;72375;59.302;18.204;2023-09-19T01:07:44;10.70;;;6.20;;
11663;SDS011;72375;59.302;18.204;2023-09-19T01:10:31;8.63;;;5.53;;
11663;SDS011;72375;59.302;18.204;2023-09-19T01:13:20;8.82;;;5.53;;
11663;SDS011;72375;59.302;18.204;2023-09-19T01:16:14;10.05;;;6.10;;
11663;SDS011;72375;59.302;18.204;2023-09-19T01:19:14;9.27;;;6.10;;
11663;SDS011;72375;59.302;18.204;2023-09-19T01:22:30;8.23;;;5.93;;
11663;SDS011;72375;59.302;18.204;2023-09-19T01:29:01;9.27;;;5.88;;
11663;SDS011;72375;59.302;18.204;2023-09-19T01:32:01;7.00;;;5.65;;
11663;SDS011;72375;59.302;18.204;2023-09-19T01:34:49;7.38;;;5.38;;
11663;SDS011;72375;59.302;18.204;2023-09-19T01:37:36;6.72;;;4.95;;
11663;SDS011;72375;59.302;18.204;2023-09-19T01:40:22;7.57;;;5.80;;
11663;SDS011;72375;59.302;18.204;2023-09-19T01:43:12;9.07;;;5.63;;
11663;SDS011;72375;59.302;18.204;2023-09-19T01:46:07;9.18;;;5.93;;
11663;SDS011;72375;59.302;18.204;2023-09-19T01:49:01;10.35;;;6.00;;
11663;SDS011;72375;59.302;18.204;2023-09-19T01:52:00;9.65;;;6.03;;
11663;SDS011;72375;59.302;18.204;2023-09-19T01:54:51;9.23;;;5.97;;
11663;SDS011;72375;59.302;18.204;2023-09-19T01:57:41;8.68;;;6.32;;
11663;SDS011;72375;59.302;18.204;2023-09-19T02:00:32;7.85;;;6.28;;
11663;SDS011;72375;59.302;18.204;2023-09-19T02:03:20;10.65;;;6.50;;
11663;SDS011;72375;59.302;18.204;2023-09-19T02:06:08;11.35;;;6.50;;
11663;SDS011;72375;59.302;18.204;2023-09-19T02:08:59;9.13;;;6.28;;
11663;SDS011;72375;59.302;18.204;2023-09-19T02:11:46;8.13;;;6.25;;
11663;SDS011;72375;59.302;18.204;2023-09-19T02:14:33;11.50;;;7.20;;
11663;SDS011;72375;59.302;18.204;2023-09-19T02:17:20;10.45;;;6.88;;
11663;SDS011;72375;59.302;18.204;2023-09-19T02:20:06;11.10;;;7.30;;
11663;SDS011;72375;59.302;18.204;2023-09-19T02:22:55;8.77;;;6.80;;
11663;SDS011;72375;59.302;18.204;2023-09-19T02:25:41;14.13;;;7.50;;
11663;SDS011;72375;59.302;18.204;2023-09-19T02:28:26;8.75;;;6.88;;
11663;SDS011;72375;59.302;18.204;2023-09-19T02:31:13;11.80;;;7.93;;
11663;SDS011;72375;59.302;18.204;2023-09-19T02:34:00;9.73;;;7.18;;
11663;SDS011;72375;59.302;18.204;2023-09-19T02:36:45;10.10;;;7.55;;
11663;SDS011;72375;59.302;18.204;2023-09-19T02:39:32;9.35;;;7.78;;
11663;SDS011;72375;59.302;18.204;2023-09-19T02:42:18;10.38;;;7.85;;
11663;SDS011;72375;59.302;18.204;2023-09-19T02:45:04;12.07;;;7.88;;
11663;SDS011;72375;59.302;18.204;2023-09-19T02:47:50;9.63;;;7.45;;
11663;SDS011;72375;59.302;18.204;2023-09-19T02:50:36;11.48;;;7.40;;
11663;SDS011;72375;59.302;18.204;2023-09-19T02:53:23;10.35;;;8.00;;
11663;SDS011;72375;59.302;18.204;2023-09-19T02:56:10;8.45;;;7.25;;
11663;SDS011;72375;59.302;18.204;2023-09-19T02:58:57;11.10;;;7.55;;
11663;SDS011;72375;59.302;18.204;2023-09-19T03:01:44;9.90;;;7.35;;
11663;SDS011;72375;59.302;18.204;2023-09-19T03:04:31;11.77;;;7.68;;
11663;SDS011;72375;59.302;18.204;2023-09-19T03:07:19;11.27;;;8.10;;
11663;SDS011;72375;59.302;18.204;2023-09-19T03:10:05;11.63;;;8.32;;
11663;SDS011;72375;59.302;18.204;2023-09-19T03:12:53;11.63;;;8.80;;
11663;SDS011;72375;59.302;18.204;2023-09-19T03:15:40;9.73;;;7.90;;
11663;SDS011;72375;59.302;18.204;2023-09-19T03:18:27;12.20;;;8.73;;
11663;SDS011;72375;59.302;18.204;2023-09-19T03:21:13;11.35;;;7.60;;
11663;SDS011;72375;59.302;18.204;2023-09-19T03:23:58;12.45;;;8.52;;
11663;SDS011;72375;59.302;18.204;2023-09-19T03:26:44;13.35;;;9.48;;
11663;SDS011;72375;59.302;18.204;2023-09-19T03:29:32;11.45;;;8.95;;
11663;SDS011;72375;59.302;18.204;2023-09-19T03:32:18;13.50;;;8.60;;
11663;SDS011;72375;59.302;18.204;2023-09-19T03:35:03;12.10;;;9.00;;
11663;SDS011;72375;59.302;18.204;2023-09-19T03:37:50;13.25;;;9.63;;
11663;SDS011;72375;59.302;18.204;2023-09-19T03:40:36;13.30;;;9.40;;
11663;SDS011;72375;59.302;18.204;2023-09-19T03:43:22;14.27;;;9.88;;
11663;SDS011;72375;59.302;18.204;2023-09-19T03:46:09;11.30;;;9.50;;
11663;SDS011;72375;59.302;18.204;2023-09-19T03:48:56;13.50;;;9.30;;
11663;SDS011;72375;59.302;18.204;2023-09-19T03:51:42;12.38;;;9.70;;
11663;SDS011;72375;59.302;18.204;2023-09-19T03:54:28;12.52;;;9.50;;
11663;SDS011;72375;59.302;18.204;2023-09-19T03:57:13;10.50;;;9.13;;
11663;SDS011;72375;59.302;18.204;2023-09-19T04:00:04;14.95;;;9.18;;
11663;SDS011;72375;59.302;18.204;2023-09-19T04:02:56;17.60;;;9.60;;
11663;SDS011;72375;59.302;18.204;2023-09-19T04:05:41;12.30;;;9.57;;
11663;SDS011;72375;59.302;18.204;2023-09-19T04:08:27;13.55;;;9.35;;
11663;SDS011;72375;59.302;18.204;2023-09-19T04:11:13;13.43;;;9.60;;
11663;SDS011;72375;59.302;18.204;2023-09-19T04:13:59;15.38;;;9.60;;
11663;SDS011;72375;59.302;18.204;2023-09-19T04:16:47;11.90;;;9.25;;
11663;SDS011;72375;59.302;18.204;2023-09-19T04:19:34;13.52;;;10.60;;
11663;SDS011;72375;59.302;18.204;2023-09-19T04:22:20;13.02;;;10.77;;
11663;SDS011;72375;59.302;18.204;2023-09-19T04:25:05;13.48;;;10.48;;
11663;SDS011;72375;59.302;18.204;2023-09-19T04:27:51;12.95;;;9.32;;
11663;SDS011;72375;59.302;18.204;2023-09-19T04:30:37;13.70;;;9.63;;
11663;SDS011;72375;59.302;18.204;2023-09-19T04:33:24;12.13;;;9.80;;
11663;SDS011;72375;59.302;18.204;2023-09-19T04:36:12;18.23;;;10.93;;
11663;SDS011;72375;59.302;18.204;2023-09-19T04:38:57;12.77;;;9.80;;
11663;SDS011;72375;59.302;18.204;2023-09-19T04:41:43;14.63;;;10.10;;
11663;SDS011;72375;59.302;18.204;2023-09-19T04:44:31;11.40;;;10.18;;
11663;SDS011;72375;59.302;18.204;2023-09-19T04:47:17;13.85;;;10.45;;
11663;SDS011;72375;59.302;18.204;2023-09-19T04:50:03;12.85;;;9.90;;
11663;SDS011;72375;59.302;18.204;2023-09-19T04:52:53;11.32;;;9.85;;
11663;SDS011;72375;59.302;18.204;2023-09-19T04:55:38;15.20;;;10.77;;
11663;SDS011;72375;59.302;18.204;2023-09-19T04:58:24;13.45;;;11.00;;
11663;SDS011;72375;59.302;18.204;2023-09-19T05:01:09;15.68;;;10.82;;
11663;SDS011;72375;59.302;18.204;2023-09-19T05:03:56;11.77;;;9.70;;
11663;SDS011;72375;59.302;18.204;2023-09-19T05:06:41;15.55;;;10.55;;
11663;SDS011;72375;59.302;18.204;2023-09-19T05:09:29;12.30;;;10.50;;
11663;SDS011;72375;59.302;18.204;2023-09-19T05:12:18;15.18;;;10.82;;
11663;SDS011;72375;59.302;18.204;2023-09-19T05:15:04;15.63;;;11.00;;
11663;SDS011;72375;59.302;18.204;2023-09-19T05:17:51;13.77;;;10.35;;
11663;SDS011;72375;59.302;18.204;2023-09-19T05:20:38;14.95;;;10.68;;
11663;SDS011;72375;59.302;18.204;2023-09-19T05:23:24;12.25;;;11.00;;
11663;SDS011;72375;59.302;18.204;2023-09-19T05:26:12;13.13;;;11.07;;
11663;SDS011;72375;59.302;18.204;2023-09-19T05:29:00;14.52;;;11.38;;
11663;SDS011;72375;59.302;18.204;2023-09-19T05:31:47;13.52;;;11.23;;
11663;SDS011;72375;59.302;18.204;2023-09-19T05:34:33;12.55;;;10.50;;
11663;SDS011;72375;59.302;18.204;2023-09-19T05:37:19;11.93;;;10.25;;
11663;SDS011;72375;59.302;18.204;2023-09-19T05:40:05;10.88;;;9.82;;
11663;SDS011;72375;59.302;18.204;2023-09-19T05:42:55;11.75;;;10.20;;
11663;SDS011;72375;59.302;18.204;2023-09-19T05:45:41;12.90;;;10.30;;
11663;SDS011;72375;59.302;18.204;2023-09-19T05:48:27;12.13;;;10.05;;
11663;SDS011;72375;59.302;18.204;2023-09-19T05:51:13;11.52;;;9.88;;
11663;SDS011;72375;59.302;18.204;2023-09-19T05:53:58;13.32;;;9.80;;
11663;SDS011;72375;59.302;18.204;2023-09-19T05:56:44;13.80;;;10.75;;
11663;SDS011;72375;59.302;18.204;2023-09-19T05:59:32;13.93;;;11.00;;
11663;SDS011;72375;59.302;18.204;2023-09-19T06:02:18;11.98;;;10.50;;
11663;SDS011;72375;59.302;18.204;2023-09-19T06:05:04;11.73;;;9.80;;
11663;SDS011;72375;59.302;18.204;2023-09-19T06:07:54;13.85;;;10.18;;
11663;SDS011;72375;59.302;18.204;2023-09-19T06:10:39;15.73;;;10.93;;
11663;SDS011;72375;59.302;18.204;2023-09-19T06:13:25;13.65;;;10.98;;
11663;SDS011;72375;59.302;18.204;2023-09-19T06:16:14;13.50;;;10.75;;
11663;SDS011;72375;59.302;18.204;2023-09-19T06:18:59;16.13;;;11.30;;
11663;SDS011;72375;59.302;18.204;2023-09-19T06:21:45;15.00;;;10.77;;
11663;SDS011;72375;59.302;18.204;2023-09-19T06:24:32;14.60;;;11.07;;
11663;SDS011;72375;59.302;18.204;2023-09-19T06:27:17;13.65;;;10.98;;
11663;SDS011;72375;59.302;18.204;2023-09-19T06:30:03;14.15;;;11.27;;
11663;SDS011;72375;59.302;18.204;2023-09-19T06:32:56;11.82;;;10.48;;
11663;SDS011;72375;59.302;18.204;2023-09-19T06:35:42;13.00;;;10.55;;
11663;SDS011;72375;59.302;18.204;2023-09-19T06:38:28;10.68;;;9.68;;
11663;SDS011;72375;59.302;18.204;2023-09-19T06:41:15;10.90;;;9.80;;
11663;SDS011;72375;59.302;18.204;2023-09-19T06:44:01;12.18;;;9.75;;
11663;SDS011;72375;59.302;18.204;2023-09-19T06:46:47;13.98;;;10.63;;
11663;SDS011;72375;59.302;18.204;2023-09-19T06:49:36;10.73;;;9.60;;
11663;SDS011;72375;59.302;18.204;2023-09-19T06:52:22;13.48;;;10.27;;
11663;SDS011;72375;59.302;18.204;2023-09-19T06:55:10;13.23;;;10.88;;
11663;SDS011;72375;59.302;18.204;2023-09-19T06:57:57;12.45;;;10.18;;
11663;SDS011;72375;59.302;18.204;2023-09-19T07:00:42;15.10;;;11.15;;
11663;SDS011;72375;59.302;18.204;2023-09-19T07:03:29;13.60;;;10.55;;
11663;SDS011;72375;59.302;18.204;2023-09-19T07:06:18;13.23;;;10.93;;
11663;SDS011;72375;59.302;18.204;2023-09-19T07:09:04;14.43;;;12.40;;
11663;SDS011;72375;59.302;18.204;2023-09-19T07:11:50;16.35;;;11.35;;
11663;SDS011;72375;59.302;18.204;2023-09-19T07:14:35;14.15;;;10.32;;
11663;SDS011;72375;59.302;18.204;2023-09-19T07:17:21;11.45;;;10.10;;
11663;SDS011;72375;59.302;18.204;2023-09-19T07:20:08;11.77;;;9.85;;
11663;SDS011;72375;59.302;18.204;2023-09-19T07:23:01;10.52;;;9.50;;
11663;SDS011;72375;59.302;18.204;2023-09-19T07:25:47;10.30;;;9.18;;
11663;SDS011;72375;59.302;18.204;2023-09-19T07:28:33;9.52;;;8.18;;
11663;SDS011;72375;59.302;18.204;2023-09-19T07:31:20;9.18;;;7.93;;
11663;SDS011;72375;59.302;18.204;2023-09-19T07:34:06;8.30;;;7.50;;
11663;SDS011;72375;59.302;18.204;2023-09-19T07:36:54;9.73;;;7.50;;
11663;SDS011;72375;59.302;18.204;2023-09-19T07:39:41;8.77;;;7.80;;
11663;SDS011;72375;59.302;18.204;2023-09-19T07:42:28;7.95;;;7.13;;
11663;SDS011;72375;59.302;18.204;2023-09-19T07:45:15;10.05;;;7.47;;
11663;SDS011;72375;59.302;18.204;2023-09-19T07:48:01;8.10;;;7.30;;
11663;SDS011;72375;59.302;18.204;2023-09-19T07:50:49;8.90;;;8.00;;
11663;SDS011;72375;59.302;18.204;2023-09-19T07:53:35;9.80;;;7.35;;
11663;SDS011;72375;59.302;18.204;2023-09-19T07:56:22;10.95;;;8.10;;
11663;SDS011;72375;59.302;18.204;2023-09-19T07:59:10;8.70;;;7.80;;
11663;SDS011;72375;59.302;18.204;2023-09-19T08:01:56;9.75;;;7.90;;
11663;SDS011;72375;59.302;18.204;2023-09-19T08:04:41;12.38;;;8.27;;
11663;SDS011;72375;59.302;18.204;2023-09-19T08:07:28;10.85;;;9.00;;
11663;SDS011;72375;59.302;18.204;2023-09-19T08:10:14;10.38;;;8.27;;
11663;SDS011;72375;59.302;18.204;2023-09-19T08:13:04;11.98;;;9.52;;
11663;SDS011;72375;59.302;18.204;2023-09-19T08:15:50;14.55;;;9.93;;
11663;SDS011;72375;59.302;18.204;2023-09-19T08:18:36;13.88;;;10.02;;
11663;SDS011;72375;59.302;18.204;2023-09-19T08:21:23;12.15;;;10.27;;
11663;SDS011;72375;59.302;18.204;2023-09-19T08:24:11;16.48;;;11.05;;
11663;SDS011;72375;59.302;18.204;2023-09-19T08:26:58;19.77;;;11.52;;
11663;SDS011;72375;59.302;18.204;2023-09-19T08:29:45;14.43;;;11.38;;
11663;SDS011;72375;59.302;18.204;2023-09-19T08:32:31;15.13;;;10.93;;
11663;SDS011;72375;59.302;18.204;2023-09-19T08:35:17;14.65;;;11.10;;
11663;SDS011;72375;59.302;18.204;2023-09-19T08:38:03;18.67;;;9.70;;
11663;SDS011;72375;59.302;18.204;2023-09-19T08:40:49;14.68;;;10.27;;
11663;SDS011;72375;59.302;18.204;2023-09-19T08:43:35;15.20;;;9.88;;
11663;SDS011;72375;59.302;18.204;2023-09-19T08:46:22;15.55;;;10.57;;
11663;SDS011;72375;59.302;18.204;2023-09-19T08:49:14;11.65;;;9.77;;
11663;SDS011;72375;59.302;18.204;2023-09-19T08:52:22;15.35;;;9.73;;
11663;SDS011;72375;59.302;18.204;2023-09-19T08:55:12;13.13;;;9.82;;
11663;SDS011;72375;59.302;18.204;2023-09-19T08:58:04;13.02;;;9.88;;
11663;SDS011;72375;59.302;18.204;2023-09-19T09:00:54;14.75;;;10.02;;
11663;SDS011;72375;59.302;18.204;2023-09-19T09:03:46;15.45;;;10.80;;
11663;SDS011;72375;59.302;18.204;2023-09-19T09:06:34;13.32;;;10.20;;
11663;SDS011;72375;59.302;18.204;2023-09-19T09:09:23;13.15;;;10.05;;
11663;SDS011;72375;59.302;18.204;2023-09-19T09:12:10;14.57;;;10.27;;
11663;SDS011;72375;59.302;18.204;2023-09-19T09:14:57;14.00;;;9.98;;
11663;SDS011;72375;59.302;18.204;2023-09-19T09:17:43;14.07;;;9.95;;
11663;SDS011;72375;59.302;18.204;2023-09-19T09:20:33;11.13;;;8.80;;
11663;SDS011;72375;59.302;18.204;2023-09-19T09:23:19;15.63;;;8.98;;
11663;SDS011;72375;59.302;18.204;2023-09-19T09:26:05;13.07;;;8.75;;
11663;SDS011;72375;59.302;18.204;2023-09-19T09:28:50;11.38;;;8.88;;
11663;SDS011;72375;59.302;18.204;2023-09-19T09:31:37;9.88;;;8.40;;
11663;SDS011;72375;59.302;18.204;2023-09-19T09:34:32;11.02;;;8.27;;
11663;SDS011;72375;59.302;18.204;2023-09-19T09:37:19;11.65;;;8.63;;
11663;SDS011;72375;59.302;18.204;2023-09-19T09:40:05;11.48;;;8.05;;
11663;SDS011;72375;59.302;18.204;2023-09-19T09:43:03;13.60;;;8.20;;
11663;SDS011;72375;59.302;18.204;2023-09-19T09:46:13;10.90;;;8.02;;
11663;SDS011;72375;59.302;18.204;2023-09-19T09:49:22;9.70;;;7.65;;
11663;SDS011;72375;59.302;18.204;2023-09-19T09:52:10;12.90;;;7.22;;
11663;SDS011;72375;59.302;18.204;2023-09-19T09:55:02;11.25;;;7.85;;
11663;SDS011;72375;59.302;18.204;2023-09-19T09:57:52;12.10;;;7.28;;
11663;SDS011;72375;59.302;18.204;2023-09-19T10:01:02;9.70;;;7.03;;
11663;SDS011;72375;59.302;18.204;2023-09-19T10:03:54;9.98;;;7.28;;
11663;SDS011;72375;59.302;18.204;2023-09-19T10:06:43;8.70;;;7.07;;
11663;SDS011;72375;59.302;18.204;2023-09-19T10:09:44;8.90;;;7.10;;
11663;SDS011;72375;59.302;18.204;2023-09-19T10:12:32;9.98;;;7.57;;
11663;SDS011;72375;59.302;18.204;2023-09-19T10:15:19;7.40;;;6.30;;
11663;SDS011;72375;59.302;18.204;2023-09-19T10:18:05;8.65;;;6.32;;
11663;SDS011;72375;59.302;18.204;2023-09-19T10:20:52;8.68;;;6.45;;
11663;SDS011;72375;59.302;18.204;2023-09-19T10:23:39;8.13;;;6.57;;
11663;SDS011;72375;59.302;18.204;2023-09-19T10:26:27;9.10;;;7.00;;
11663;SDS011;72375;59.302;18.204;2023-09-19T10:29:17;6.10;;;5.50;;
11663;SDS011;72375;59.302;18.204;2023-09-19T10:32:03;7.80;;;5.90;;
11663;SDS011;72375;59.302;18.204;2023-09-19T10:34:52;9.70;;;5.40;;
11663;SDS011;72375;59.302;18.204;2023-09-19T10:37:40;7.88;;;5.45;;
11663;SDS011;72375;59.302;18.204;2023-09-19T10:40:28;5.78;;;4.82;;
11663;SDS011;72375;59.302;18.204;2023-09-19T10:43:19;8.20;;;5.30;;
11663;SDS011;72375;59.302;18.204;2023-09-19T10:46:08;6.00;;;5.15;;
11663;SDS011;72375;59.302;18.204;2023-09-19T10:48:57;5.50;;;5.00;;
11663;SDS011;72375;59.302;18.204;2023-09-19T10:51:44;5.13;;;4.63;;
11663;SDS011;72375;59.302;18.204;2023-09-19T10:54:33;5.35;;;4.75;;
11663;SDS011;72375;59.302;18.204;2023-09-19T10:57:23;6.68;;;4.82;;
11663;SDS011;72375;59.302;18.204;2023-09-19T11:00:11;6.82;;;4.53;;
11663;SDS011;72375;59.302;18.204;2023-09-19T11:03:18;5.93;;;4.88;;
11663;SDS011;72375;59.302;18.204;2023-09-19T11:06:08;5.20;;;4.47;;
11663;SDS011;72375;59.302;18.204;2023-09-19T11:09:00;6.65;;;4.20;;
11663;SDS011;72375;59.302;18.204;2023-09-19T11:12:00;8.43;;;4.53;;
11663;SDS011;72375;59.302;18.204;2023-09-19T11:14:46;6.78;;;4.20;;
11663;SDS011;72375;59.302;18.204;2023-09-19T11:17:32;5.03;;;3.88;;
11663;SDS011;72375;59.302;18.204;2023-09-19T11:20:20;4.75;;;3.88;;
11663;SDS011;72375;59.302;18.204;2023-09-19T11:23:23;6.82;;;3.78;;
11663;SDS011;72375;59.302;18.204;2023-09-19T11:26:19;4.72;;;3.40;;
11663;SDS011;72375;59.302;18.204;2023-09-19T11:29:27;4.90;;;3.50;;
11663;SDS011;72375;59.302;18.204;2023-09-19T11:32:14;7.15;;;3.47;;
11663;SDS011;72375;59.302;18.204;2023-09-19T11:35:06;3.75;;;3.03;;
11663;SDS011;72375;59.302;18.204;2023-09-19T11:38:03;5.78;;;2.90;;
11663;SDS011;72375;59.302;18.204;2023-09-19T11:44:32;3.83;;;2.90;;
11663;SDS011;72375;59.302;18.204;2023-09-19T11:47:21;3.97;;;2.67;;
11663;SDS011;72375;59.302;18.204;2023-09-19T11:50:08;2.60;;;2.40;;
11663;SDS011;72375;59.302;18.204;2023-09-19T11:52:55;3.60;;;2.78;;
11663;SDS011;72375;59.302;18.204;2023-09-19T11:55:42;3.03;;;2.53;;
11663;SDS011;72375;59.302;18.204;2023-09-19T11:58:29;2.97;;;2.03;;
11663;SDS011;72375;59.302;18.204;2023-09-19T12:01:21;3.25;;;1.98;;
11663;SDS011;72375;59.302;18.204;2023-09-19T12:04:08;3.22;;;1.80;;
11663;SDS011;72375;59.302;18.204;2023-09-19T12:06:58;2.83;;;1.90;;
11663;SDS011;72375;59.302;18.204;2023-09-19T12:09:44;2.35;;;1.63;;
11663;SDS011;72375;59.302;18.204;2023-09-19T12:12:33;1.98;;;1.50;;
11663;SDS011;72375;59.302;18.204;2023-09-19T12:15:22;2.72;;;1.50;;
11663;SDS011;72375;59.302;18.204;2023-09-19T12:18:25;3.85;;;2.25;;
11663;SDS011;72375;59.302;18.204;2023-09-19T12:21:21;3.78;;;1.70;;
11663;SDS011;72375;59.302;18.204;2023-09-19T12:24:11;3.03;;;1.48;;
11663;SDS011;72375;59.302;18.204;2023-09-19T12:27:00;2.60;;;1.60;;
11663;SDS011;72375;59.302;18.204;2023-09-19T12:29:49;3.15;;;1.60;;
11663;SDS011;72375;59.302;18.204;2023-09-19T12:32:39;2.58;;;1.67;;
11663;SDS011;72375;59.302;18.204;2023-09-19T12:35:28;2.47;;;1.40;;
11663;SDS011;72375;59.302;18.204;2023-09-19T12:38:24;2.85;;;1.65;;
11663;SDS011;72375;59.302;18.204;2023-09-19T12:41:11;2.60;;;1.25;;
11663;SDS011;72375;59.302;18.204;2023-09-19T12:43:57;3.05;;;1.70;;
11663;SDS011;72375;59.302;18.204;2023-09-19T12:46:45;3.35;;;1.70;;
11663;SDS011;72375;59.302;18.204;2023-09-19T12:49:31;1.73;;;1.30;;
11663;SDS011;72375;59.302;18.204;2023-09-19T12:52:16;1.30;;;1.15;;
11663;SDS011;72375;59.302;18.204;2023-09-19T12:55:03;2.42;;;1.60;;
11663;SDS011;72375;59.302;18.204;2023-09-19T12:58:03;3.88;;;1.73;;
11663;SDS011;72375;59.302;18.204;2023-09-19T13:00:54;1.50;;;1.35;;
11663;SDS011;72375;59.302;18.204;2023-09-19T13:03:41;2.50;;;1.58;;
11663;SDS011;72375;59.302;18.204;2023-09-19T13:06:35;3.33;;;1.60;;
11663;SDS011;72375;59.302;18.204;2023-09-19T13:09:22;3.63;;;1.52;;
11663;SDS011;72375;59.302;18.204;2023-09-19T13:15:22;3.58;;;1.40;;
11663;SDS011;72375;59.302;18.204;2023-09-19T13:18:10;3.40;;;1.67;;
11663;SDS011;72375;59.302;18.204;2023-09-19T13:21:08;3.72;;;1.60;;
11663;SDS011;72375;59.302;18.204;2023-09-19T13:23:56;3.53;;;1.60;;
11663;SDS011;72375;59.302;18.204;2023-09-19T13:27:04;3.92;;;1.83;;
11663;SDS011;72375;59.302;18.204;2023-09-19T13:29:50;2.60;;;1.50;;
11663;SDS011;72375;59.302;18.204;2023-09-19T13:32:36;4.57;;;1.50;;
11663;SDS011;72375;59.302;18.204;2023-09-19T13:35:23;2.72;;;1.60;;
11663;SDS011;72375;59.302;18.204;2023-09-19T13:38:10;3.63;;;1.92;;
11663;SDS011;72375;59.302;18.204;2023-09-19T13:40:56;3.85;;;1.63;;
11663;SDS011;72375;59.302;18.204;2023-09-19T13:43:44;4.07;;;2.08;;
11663;SDS011;72375;59.302;18.204;2023-09-19T13:46:32;2.55;;;1.50;;
11663;SDS011;72375;59.302;18.204;2023-09-19T13:49:19;2.75;;;1.90;;
11663;SDS011;72375;59.302;18.204;2023-09-19T13:52:05;3.92;;;1.75;;
11663;SDS011;72375;59.302;18.204;2023-09-19T13:54:52;4.22;;;1.90;;
11663;SDS011;72375;59.302;18.204;2023-09-19T13:57:40;5.10;;;1.70;;
11663;SDS011;72375;59.302;18.204;2023-09-19T14:00:28;3.45;;;1.70;;
11663;SDS011;72375;59.302;18.204;2023-09-19T14:03:18;6.93;;;1.80;;
11663;SDS011;72375;59.302;18.204;2023-09-19T14:06:04;3.08;;;1.70;;
11663;SDS011;72375;59.302;18.204;2023-09-19T14:08:50;3.40;;;1.85;;
11663;SDS011;72375;59.302;18.204;2023-09-19T14:11:37;4.00;;;1.70;;
11663;SDS011;72375;59.302;18.204;2023-09-19T14:14:22;3.85;;;1.70;;
11663;SDS011;72375;59.302;18.204;2023-09-19T14:17:08;5.00;;;1.65;;
11663;SDS011;72375;59.302;18.204;2023-09-19T14:19:54;3.42;;;1.80;;
11663;SDS011;72375;59.302;18.204;2023-09-19T14:22:40;4.05;;;1.83;;
11663;SDS011;72375;59.302;18.204;2023-09-19T14:25:26;3.10;;;1.90;;
11663;SDS011;72375;59.302;18.204;2023-09-19T14:28:14;2.67;;;1.48;;
11663;SDS011;72375;59.302;18.204;2023-09-19T14:31:03;3.97;;;1.73;;
11663;SDS011;72375;59.302;18.204;2023-09-19T14:33:53;2.75;;;1.55;;
11663;SDS011;72375;59.302;18.204;2023-09-19T14:36:40;4.03;;;2.05;;
11663;SDS011;72375;59.302;18.204;2023-09-19T14:39:25;4.45;;;1.80;;
11663;SDS011;72375;59.302;18.204;2023-09-19T14:42:12;3.03;;;2.10;;
11663;SDS011;72375;59.302;18.204;2023-09-19T14:45:02;2.85;;;1.75;;
11663;SDS011;72375;59.302;18.204;2023-09-19T14:47:50;2.58;;;1.60;;
11663;SDS011;72375;59.302;18.204;2023-09-19T14:50:38;5.78;;;1.67;;
11663;SDS011;72375;59.302;18.204;2023-09-19T14:53:24;4.50;;;2.05;;
11663;SDS011;72375;59.302;18.204;2023-09-19T14:56:11;2.75;;;1.50;;
11663;SDS011;72375;59.302;18.204;2023-09-19T14:59:02;3.90;;;1.75;;
11663;SDS011;72375;59.302;18.204;2023-09-19T15:01:49;2.85;;;1.70;;
11663;SDS011;72375;59.302;18.204;2023-09-19T15:04:35;2.13;;;1.40;;
11663;SDS011;72375;59.302;18.204;2023-09-19T15:07:21;1.83;;;1.38;;
11663;SDS011;72375;59.302;18.204;2023-09-19T15:10:07;3.38;;;1.60;;
11663;SDS011;72375;59.302;18.204;2023-09-19T15:12:53;3.00;;;1.42;;
11663;SDS011;72375;59.302;18.204;2023-09-19T15:15:38;2.67;;;1.30;;
11663;SDS011;72375;59.302;18.204;2023-09-19T15:18:25;3.72;;;1.60;;
11663;SDS011;72375;59.302;18.204;2023-09-19T15:21:11;3.65;;;1.88;;
11663;SDS011;72375;59.302;18.204;2023-09-19T15:23:58;4.00;;;1.42;;
11663;SDS011;72375;59.302;18.204;2023-09-19T15:26:43;3.30;;;1.20;;
11663;SDS011;72375;59.302;18.204;2023-09-19T15:29:30;2.90;;;1.08;;
11663;SDS011;72375;59.302;18.204;2023-09-19T15:32:16;1.85;;;1.25;;
11663;SDS011;72375;59.302;18.204;2023-09-19T15:35:04;2.70;;;1.20;;
11663;SDS011;72375;59.302;18.204;2023-09-19T15:37:51;3.13;;;1.30;;
11663;SDS011;72375;59.302;18.204;2023-09-19T15:40:45;3.78;;;1.42;;
11663;SDS011;72375;59.302;18.204;2023-09-19T15:43:31;3.03;;;1.40;;
11663;SDS011;72375;59.302;18.204;2023-09-19T15:46:18;3.30;;;1.38;;
11663;SDS011;72375;59.302;18.204;2023-09-19T15:49:04;3.70;;;1.38;;
11663;SDS011;72375;59.302;18.204;2023-09-19T15:51:52;2.40;;;1.10;;
11663;SDS011;72375;59.302;18.204;2023-09-19T15:54:38;2.35;;;1.08;;
11663;SDS011;72375;59.302;18.204;2023-09-19T15:57:28;3.15;;;1.30;;
11663;SDS011;72375;59.302;18.204;2023-09-19T16:00:14;3.47;;;1.08;;
11663;SDS011;72375;59.302;18.204;2023-09-19T16:03:03;2.25;;;1.13;;
11663;SDS011;72375;59.302;18.204;2023-09-19T16:05:48;2.30;;;1.33;;
11663;SDS011;72375;59.302;18.204;2023-09-19T16:08:36;2.47;;;1.20;;
11663;SDS011;72375;59.302;18.204;2023-09-19T16:11:25;3.17;;;1.10;;
11663;SDS011;72375;59.302;18.204;2023-09-19T16:14:11;2.05;;;1.15;;
11663;SDS011;72375;59.302;18.204;2023-09-19T16:16:57;2.15;;;1.10;;
11663;SDS011;72375;59.302;18.204;2023-09-19T16:19:43;2.88;;;1.02;;
11663;SDS011;72375;59.302;18.204;2023-09-19T16:22:29;1.83;;;1.15;;
11663;SDS011;72375;59.302;18.204;2023-09-19T16:25:16;2.63;;;0.80;;
11663;SDS011;72375;59.302;18.204;2023-09-19T16:28:02;2.80;;;1.20;;
11663;SDS011;72375;59.302;18.204;2023-09-19T16:30:49;2.88;;;1.27;;
11663;SDS011;72375;59.302;18.204;2023-09-19T16:33:35;2.00;;;1.10;;
11663;SDS011;72375;59.302;18.204;2023-09-19T16:36:22;4.30;;;1.55;;
11663;SDS011;72375;59.302;18.204;2023-09-19T16:39:08;1.77;;;1.10;;